sensor_id;sensor_type;location;lat;lon;timestamp;P1;durP1;ratioP1;P2;durP2;ratioP2
65174;SDS011;51761;42.126;24.752;2023-02-02T00:01:44;8.18;;;2.28;;
65174;SDS011;51761;42.126;24.752;2023-02-02T00:04:44;3.53;;;1.90;;
65174;SDS011;51761;42.126;24.752;2023-02-02T00:07:02;6.57;;;2.42;;
65174;SDS011;51761;42.126;24.752;2023-02-02T00:09:31;4.97;;;2.40;;
65174;SDS011;51761;42.126;24.752;2023-02-02T00:11:58;4.95;;;1.80;;
65174;SDS011;51761;42.126;24.752;2023-02-02T00:14:24;4.93;;;1.58;;
65174;SDS011;51761;42.126;24.752;2023-02-02T00:16:51;3.58;;;1.65;;
65174;SDS011;51761;42.126;24.752;2023-02-02T00:19:22;7.57;;;1.73;;
65174;SDS011;51761;42.126;24.752;2023-02-02T00:21:50;4.97;;;1.67;;
65174;SDS011;51761;42.126;24.752;2023-02-02T00:24:17;2.85;;;1.50;;
65174;SDS011;51761;42.126;24.752;2023-02-02T00:26:44;3.78;;;1.90;;
65174;SDS011;51761;42.126;24.752;2023-02-02T00:29:30;3.63;;;1.67;;
65174;SDS011;51761;42.126;24.752;2023-02-02T00:31:56;4.28;;;1.60;;
65174;SDS011;51761;42.126;24.752;2023-02-02T00:34:22;3.35;;;1.67;;
65174;SDS011;51761;42.126;24.752;2023-02-02T00:36:48;6.43;;;1.98;;
65174;SDS011;51761;42.126;24.752;2023-02-02T00:39:16;3.38;;;2.00;;
65174;SDS011;51761;42.126;24.752;2023-02-02T00:41:43;4.88;;;2.08;;
65174;SDS011;51761;42.126;24.752;2023-02-02T00:44:09;4.25;;;2.13;;
65174;SDS011;51761;42.126;24.752;2023-02-02T00:46:53;3.47;;;2.15;;
65174;SDS011;51761;42.126;24.752;2023-02-02T00:49:18;4.68;;;2.30;;
65174;SDS011;51761;42.126;24.752;2023-02-02T00:51:44;4.97;;;2.42;;
65174;SDS011;51761;42.126;24.752;2023-02-02T00:54:09;4.60;;;2.35;;
65174;SDS011;51761;42.126;24.752;2023-02-02T00:56:35;6.25;;;2.25;;
65174;SDS011;51761;42.126;24.752;2023-02-02T00:59:00;5.20;;;2.53;;
65174;SDS011;51761;42.126;24.752;2023-02-02T01:01:26;6.63;;;3.25;;
65174;SDS011;51761;42.126;24.752;2023-02-02T01:03:52;5.55;;;2.53;;
65174;SDS011;51761;42.126;24.752;2023-02-02T01:06:18;4.72;;;2.45;;
65174;SDS011;51761;42.126;24.752;2023-02-02T01:08:43;4.85;;;2.78;;
65174;SDS011;51761;42.126;24.752;2023-02-02T01:11:09;6.93;;;2.83;;
65174;SDS011;51761;42.126;24.752;2023-02-02T01:13:34;4.72;;;2.58;;
65174;SDS011;51761;42.126;24.752;2023-02-02T01:16:01;5.55;;;2.25;;
65174;SDS011;51761;42.126;24.752;2023-02-02T01:18:28;3.60;;;2.15;;
65174;SDS011;51761;42.126;24.752;2023-02-02T01:20:59;9.25;;;3.63;;
65174;SDS011;51761;42.126;24.752;2023-02-02T01:23:27;5.90;;;2.75;;
65174;SDS011;51761;42.126;24.752;2023-02-02T01:25:53;4.90;;;2.33;;
65174;SDS011;51761;42.126;24.752;2023-02-02T01:28:23;5.38;;;2.80;;
65174;SDS011;51761;42.126;24.752;2023-02-02T01:30:49;7.38;;;2.95;;
65174;SDS011;51761;42.126;24.752;2023-02-02T01:33:15;5.18;;;2.45;;
65174;SDS011;51761;42.126;24.752;2023-02-02T01:35:46;6.60;;;2.63;;
65174;SDS011;51761;42.126;24.752;2023-02-02T01:38:11;5.55;;;2.78;;
65174;SDS011;51761;42.126;24.752;2023-02-02T01:40:42;5.63;;;2.72;;
65174;SDS011;51761;42.126;24.752;2023-02-02T01:43:19;5.18;;;2.20;;
65174;SDS011;51761;42.126;24.752;2023-02-02T01:45:46;3.65;;;1.98;;
65174;SDS011;51761;42.126;24.752;2023-02-02T01:48:12;14.00;;;2.40;;
65174;SDS011;51761;42.126;24.752;2023-02-02T01:50:38;7.60;;;2.13;;
65174;SDS011;51761;42.126;24.752;2023-02-02T01:53:04;5.82;;;2.30;;
65174;SDS011;51761;42.126;24.752;2023-02-02T01:55:31;8.63;;;2.10;;
65174;SDS011;51761;42.126;24.752;2023-02-02T01:58:02;6.68;;;2.20;;
65174;SDS011;51761;42.126;24.752;2023-02-02T02:00:32;3.95;;;1.90;;
65174;SDS011;51761;42.126;24.752;2023-02-02T02:02:59;3.95;;;2.00;;
65174;SDS011;51761;42.126;24.752;2023-02-02T02:05:30;2.55;;;1.83;;
65174;SDS011;51761;42.126;24.752;2023-02-02T02:08:01;3.65;;;1.77;;
65174;SDS011;51761;42.126;24.752;2023-02-02T02:10:34;7.93;;;1.85;;
65174;SDS011;51761;42.126;24.752;2023-02-02T02:12:59;4.85;;;1.90;;
65174;SDS011;51761;42.126;24.752;2023-02-02T02:15:25;3.22;;;2.05;;
65174;SDS011;51761;42.126;24.752;2023-02-02T02:21:21;3.70;;;2.13;;
65174;SDS011;51761;42.126;24.752;2023-02-02T02:27:28;4.88;;;2.25;;
65174;SDS011;51761;42.126;24.752;2023-02-02T02:33:03;4.85;;;1.95;;
65174;SDS011;51761;42.126;24.752;2023-02-02T02:35:48;5.13;;;2.25;;
65174;SDS011;51761;42.126;24.752;2023-02-02T02:38:41;4.75;;;2.47;;
65174;SDS011;51761;42.126;24.752;2023-02-02T02:41:19;6.03;;;2.80;;
65174;SDS011;51761;42.126;24.752;2023-02-02T02:43:55;5.85;;;2.35;;
65174;SDS011;51761;42.126;24.752;2023-02-02T02:46:30;8.93;;;2.10;;
65174;SDS011;51761;42.126;24.752;2023-02-02T02:48:57;3.90;;;2.25;;
65174;SDS011;51761;42.126;24.752;2023-02-02T02:54:10;8.25;;;2.80;;
65174;SDS011;51761;42.126;24.752;2023-02-02T02:56:41;6.57;;;2.40;;
65174;SDS011;51761;42.126;24.752;2023-02-02T03:02:19;9.48;;;2.38;;
65174;SDS011;51761;42.126;24.752;2023-02-02T03:10:34;3.75;;;1.83;;
65174;SDS011;51761;42.126;24.752;2023-02-02T03:13:05;6.05;;;2.25;;
65174;SDS011;51761;42.126;24.752;2023-02-02T03:15:33;4.53;;;1.77;;
65174;SDS011;51761;42.126;24.752;2023-02-02T03:17:58;4.00;;;1.80;;
65174;SDS011;51761;42.126;24.752;2023-02-02T03:20:24;3.20;;;1.40;;
65174;SDS011;51761;42.126;24.752;2023-02-02T03:22:50;4.60;;;1.65;;
65174;SDS011;51761;42.126;24.752;2023-02-02T03:25:15;3.35;;;1.60;;
65174;SDS011;51761;42.126;24.752;2023-02-02T03:27:41;5.57;;;2.15;;
65174;SDS011;51761;42.126;24.752;2023-02-02T03:30:10;2.83;;;1.55;;
65174;SDS011;51761;42.126;24.752;2023-02-02T03:32:37;4.53;;;1.67;;
65174;SDS011;51761;42.126;24.752;2023-02-02T03:35:03;2.47;;;1.50;;
65174;SDS011;51761;42.126;24.752;2023-02-02T03:37:29;3.03;;;1.38;;
65174;SDS011;51761;42.126;24.752;2023-02-02T03:39:54;5.00;;;1.80;;
65174;SDS011;51761;42.126;24.752;2023-02-02T03:42:20;2.80;;;1.63;;
65174;SDS011;51761;42.126;24.752;2023-02-02T03:44:45;4.80;;;1.80;;
65174;SDS011;51761;42.126;24.752;2023-02-02T03:47:11;3.38;;;1.67;;
65174;SDS011;51761;42.126;24.752;2023-02-02T03:49:36;3.75;;;1.90;;
65174;SDS011;51761;42.126;24.752;2023-02-02T03:52:02;7.45;;;2.15;;
65174;SDS011;51761;42.126;24.752;2023-02-02T03:54:29;2.53;;;1.50;;
65174;SDS011;51761;42.126;24.752;2023-02-02T03:56:55;2.72;;;1.83;;
65174;SDS011;51761;42.126;24.752;2023-02-02T03:59:20;2.80;;;1.60;;
65174;SDS011;51761;42.126;24.752;2023-02-02T04:01:46;2.75;;;1.58;;
65174;SDS011;51761;42.126;24.752;2023-02-02T04:04:11;4.53;;;1.90;;
65174;SDS011;51761;42.126;24.752;2023-02-02T04:06:37;2.03;;;1.55;;
65174;SDS011;51761;42.126;24.752;2023-02-02T04:09:02;4.97;;;1.40;;
65174;SDS011;51761;42.126;24.752;2023-02-02T04:11:28;2.83;;;1.55;;
65174;SDS011;51761;42.126;24.752;2023-02-02T04:13:54;7.15;;;1.92;;
65174;SDS011;51761;42.126;24.752;2023-02-02T04:16:20;5.00;;;1.77;;
65174;SDS011;51761;42.126;24.752;2023-02-02T04:18:45;3.30;;;1.83;;
65174;SDS011;51761;42.126;24.752;2023-02-02T04:21:11;6.95;;;1.98;;
65174;SDS011;51761;42.126;24.752;2023-02-02T04:23:36;3.63;;;1.95;;
65174;SDS011;51761;42.126;24.752;2023-02-02T04:26:02;5.80;;;2.05;;
65174;SDS011;51761;42.126;24.752;2023-02-02T04:28:28;3.90;;;2.33;;
65174;SDS011;51761;42.126;24.752;2023-02-02T04:30:54;4.80;;;2.47;;
65174;SDS011;51761;42.126;24.752;2023-02-02T04:33:20;6.97;;;3.45;;
65174;SDS011;51761;42.126;24.752;2023-02-02T04:35:47;4.07;;;2.35;;
65174;SDS011;51761;42.126;24.752;2023-02-02T04:38:13;9.52;;;3.47;;
65174;SDS011;51761;42.126;24.752;2023-02-02T04:40:42;8.30;;;2.78;;
65174;SDS011;51761;42.126;24.752;2023-02-02T04:43:09;9.82;;;2.40;;
65174;SDS011;51761;42.126;24.752;2023-02-02T04:45:35;6.03;;;2.30;;
65174;SDS011;51761;42.126;24.752;2023-02-02T04:48:01;8.05;;;2.78;;
65174;SDS011;51761;42.126;24.752;2023-02-02T04:50:26;5.38;;;2.83;;
65174;SDS011;51761;42.126;24.752;2023-02-02T04:52:52;5.53;;;2.30;;
65174;SDS011;51761;42.126;24.752;2023-02-02T04:55:18;6.05;;;2.50;;
65174;SDS011;51761;42.126;24.752;2023-02-02T04:57:43;7.82;;;2.55;;
65174;SDS011;51761;42.126;24.752;2023-02-02T05:00:09;5.72;;;2.60;;
65174;SDS011;51761;42.126;24.752;2023-02-02T05:02:38;5.78;;;2.67;;
65174;SDS011;51761;42.126;24.752;2023-02-02T05:05:05;12.65;;;2.95;;
65174;SDS011;51761;42.126;24.752;2023-02-02T05:07:32;8.27;;;3.17;;
65174;SDS011;51761;42.126;24.752;2023-02-02T05:09:58;8.98;;;3.50;;
65174;SDS011;51761;42.126;24.752;2023-02-02T05:12:23;6.15;;;3.25;;
65174;SDS011;51761;42.126;24.752;2023-02-02T05:14:49;9.13;;;3.35;;
65174;SDS011;51761;42.126;24.752;2023-02-02T05:17:14;8.93;;;3.25;;
65174;SDS011;51761;42.126;24.752;2023-02-02T05:19:40;12.82;;;3.65;;
65174;SDS011;51761;42.126;24.752;2023-02-02T05:22:07;9.32;;;3.75;;
65174;SDS011;51761;42.126;24.752;2023-02-02T05:24:33;15.52;;;4.40;;
65174;SDS011;51761;42.126;24.752;2023-02-02T05:26:58;6.50;;;3.85;;
65174;SDS011;51761;42.126;24.752;2023-02-02T05:29:28;14.50;;;3.70;;
65174;SDS011;51761;42.126;24.752;2023-02-02T05:31:54;16.23;;;3.60;;
65174;SDS011;51761;42.126;24.752;2023-02-02T05:34:20;16.35;;;7.50;;
65174;SDS011;51761;42.126;24.752;2023-02-02T05:36:46;23.80;;;5.20;;
65174;SDS011;51761;42.126;24.752;2023-02-02T05:39:12;6.63;;;3.50;;
65174;SDS011;51761;42.126;24.752;2023-02-02T05:41:37;33.47;;;7.03;;
65174;SDS011;51761;42.126;24.752;2023-02-02T05:44:03;13.73;;;5.95;;
65174;SDS011;51761;42.126;24.752;2023-02-02T05:46:29;7.97;;;3.70;;
65174;SDS011;51761;42.126;24.752;2023-02-02T05:48:54;7.30;;;3.40;;
65174;SDS011;51761;42.126;24.752;2023-02-02T05:51:25;6.78;;;3.70;;
65174;SDS011;51761;42.126;24.752;2023-02-02T05:53:53;13.57;;;3.80;;
65174;SDS011;51761;42.126;24.752;2023-02-02T05:56:19;17.17;;;4.57;;
65174;SDS011;51761;42.126;24.752;2023-02-02T05:58:44;16.45;;;3.92;;
65174;SDS011;51761;42.126;24.752;2023-02-02T06:01:12;10.15;;;3.97;;
65174;SDS011;51761;42.126;24.752;2023-02-02T06:03:38;12.80;;;4.53;;
65174;SDS011;51761;42.126;24.752;2023-02-02T06:06:03;21.42;;;5.03;;
65174;SDS011;51761;42.126;24.752;2023-02-02T06:08:29;17.80;;;5.85;;
65174;SDS011;51761;42.126;24.752;2023-02-02T06:10:54;12.38;;;4.85;;
65174;SDS011;51761;42.126;24.752;2023-02-02T06:13:20;12.02;;;5.55;;
65174;SDS011;51761;42.126;24.752;2023-02-02T06:15:46;17.02;;;5.55;;
65174;SDS011;51761;42.126;24.752;2023-02-02T06:18:11;10.82;;;5.18;;
65174;SDS011;51761;42.126;24.752;2023-02-02T06:20:38;23.90;;;5.70;;
65174;SDS011;51761;42.126;24.752;2023-02-02T06:23:04;21.08;;;7.15;;
65174;SDS011;51761;42.126;24.752;2023-02-02T06:25:30;13.30;;;5.50;;
65174;SDS011;51761;42.126;24.752;2023-02-02T06:27:56;22.85;;;6.63;;
65174;SDS011;51761;42.126;24.752;2023-02-02T06:30:22;23.75;;;7.38;;
65174;SDS011;51761;42.126;24.752;2023-02-02T06:32:47;22.73;;;7.88;;
65174;SDS011;51761;42.126;24.752;2023-02-02T06:35:13;20.10;;;7.57;;
65174;SDS011;51761;42.126;24.752;2023-02-02T06:37:38;26.00;;;6.88;;
65174;SDS011;51761;42.126;24.752;2023-02-02T06:40:06;15.70;;;6.38;;
65174;SDS011;51761;42.126;24.752;2023-02-02T06:42:33;16.48;;;4.97;;
65174;SDS011;51761;42.126;24.752;2023-02-02T06:44:58;16.73;;;5.25;;
65174;SDS011;51761;42.126;24.752;2023-02-02T06:47:24;12.60;;;4.60;;
65174;SDS011;51761;42.126;24.752;2023-02-02T06:49:49;13.82;;;4.60;;
65174;SDS011;51761;42.126;24.752;2023-02-02T06:52:15;8.95;;;3.85;;
65174;SDS011;51761;42.126;24.752;2023-02-02T06:54:40;12.40;;;3.80;;
65174;SDS011;51761;42.126;24.752;2023-02-02T06:57:06;8.00;;;3.38;;
65174;SDS011;51761;42.126;24.752;2023-02-02T06:59:33;6.93;;;3.25;;
65174;SDS011;51761;42.126;24.752;2023-02-02T07:01:58;6.95;;;3.65;;
65174;SDS011;51761;42.126;24.752;2023-02-02T07:04:24;12.40;;;3.50;;
65174;SDS011;51761;42.126;24.752;2023-02-02T07:06:49;11.10;;;3.20;;
65174;SDS011;51761;42.126;24.752;2023-02-02T07:09:15;7.88;;;3.28;;
65174;SDS011;51761;42.126;24.752;2023-02-02T07:11:41;10.15;;;3.60;;
65174;SDS011;51761;42.126;24.752;2023-02-02T07:14:06;12.75;;;3.97;;
65174;SDS011;51761;42.126;24.752;2023-02-02T07:16:32;10.77;;;5.05;;
65174;SDS011;51761;42.126;24.752;2023-02-02T07:18:58;17.30;;;5.40;;
65174;SDS011;51761;42.126;24.752;2023-02-02T07:21:24;11.43;;;4.85;;
65174;SDS011;51761;42.126;24.752;2023-02-02T07:23:52;10.30;;;4.00;;
65174;SDS011;51761;42.126;24.752;2023-02-02T07:26:18;8.73;;;3.80;;
65174;SDS011;51761;42.126;24.752;2023-02-02T07:28:44;16.60;;;3.80;;
65174;SDS011;51761;42.126;24.752;2023-02-02T07:31:17;6.65;;;3.05;;
65174;SDS011;51761;42.126;24.752;2023-02-02T07:33:49;6.20;;;3.20;;
65174;SDS011;51761;42.126;24.752;2023-02-02T07:36:16;8.25;;;3.75;;
65174;SDS011;51761;42.126;24.752;2023-02-02T07:38:44;10.27;;;3.55;;
65174;SDS011;51761;42.126;24.752;2023-02-02T07:41:10;6.53;;;3.10;;
65174;SDS011;51761;42.126;24.752;2023-02-02T07:43:37;5.97;;;3.38;;
65174;SDS011;51761;42.126;24.752;2023-02-02T07:46:04;15.35;;;4.03;;
65174;SDS011;51761;42.126;24.752;2023-02-02T07:48:32;9.05;;;4.03;;
65174;SDS011;51761;42.126;24.752;2023-02-02T07:50:58;6.18;;;3.28;;
65174;SDS011;51761;42.126;24.752;2023-02-02T07:53:25;7.80;;;3.75;;
65174;SDS011;51761;42.126;24.752;2023-02-02T07:55:50;11.45;;;4.10;;
65174;SDS011;51761;42.126;24.752;2023-02-02T07:58:16;7.82;;;3.65;;
65174;SDS011;51761;42.126;24.752;2023-02-02T08:00:41;10.35;;;3.97;;
65174;SDS011;51761;42.126;24.752;2023-02-02T08:03:09;7.20;;;3.20;;
65174;SDS011;51761;42.126;24.752;2023-02-02T08:05:36;12.20;;;3.78;;
65174;SDS011;51761;42.126;24.752;2023-02-02T08:08:01;8.23;;;3.60;;
65174;SDS011;51761;42.126;24.752;2023-02-02T08:10:27;8.52;;;3.88;;
65174;SDS011;51761;42.126;24.752;2023-02-02T08:12:53;9.48;;;3.72;;
65174;SDS011;51761;42.126;24.752;2023-02-02T08:15:18;9.48;;;4.18;;
65174;SDS011;51761;42.126;24.752;2023-02-02T08:17:44;10.70;;;3.97;;
65174;SDS011;51761;42.126;24.752;2023-02-02T08:20:11;6.45;;;3.38;;
65174;SDS011;51761;42.126;24.752;2023-02-02T08:22:37;10.25;;;3.63;;
65174;SDS011;51761;42.126;24.752;2023-02-02T08:25:03;8.70;;;3.38;;
65174;SDS011;51761;42.126;24.752;2023-02-02T08:27:29;11.05;;;3.17;;
65174;SDS011;51761;42.126;24.752;2023-02-02T08:29:55;9.57;;;3.25;;
65174;SDS011;51761;42.126;24.752;2023-02-02T08:32:21;7.35;;;3.30;;
65174;SDS011;51761;42.126;24.752;2023-02-02T08:34:49;11.70;;;3.15;;
65174;SDS011;51761;42.126;24.752;2023-02-02T08:37:18;8.35;;;3.13;;
65174;SDS011;51761;42.126;24.752;2023-02-02T08:39:43;5.85;;;3.10;;
65174;SDS011;51761;42.126;24.752;2023-02-02T08:42:09;12.63;;;3.08;;
65174;SDS011;51761;42.126;24.752;2023-02-02T08:44:34;8.00;;;3.05;;
65174;SDS011;51761;42.126;24.752;2023-02-02T08:46:59;5.13;;;2.90;;
65174;SDS011;51761;42.126;24.752;2023-02-02T08:49:25;6.43;;;3.10;;
65174;SDS011;51761;42.126;24.752;2023-02-02T08:51:51;5.95;;;3.00;;
65174;SDS011;51761;42.126;24.752;2023-02-02T08:54:17;9.38;;;3.42;;
65174;SDS011;51761;42.126;24.752;2023-02-02T08:56:42;7.97;;;2.65;;
65174;SDS011;51761;42.126;24.752;2023-02-02T08:59:08;6.70;;;2.83;;
65174;SDS011;51761;42.126;24.752;2023-02-02T09:01:33;11.18;;;2.75;;
65174;SDS011;51761;42.126;24.752;2023-02-02T09:04:00;5.15;;;3.03;;
65174;SDS011;51761;42.126;24.752;2023-02-02T09:06:38;10.55;;;3.15;;
65174;SDS011;51761;42.126;24.752;2023-02-02T09:09:05;9.95;;;3.50;;
65174;SDS011;51761;42.126;24.752;2023-02-02T09:11:33;6.90;;;3.05;;
65174;SDS011;51761;42.126;24.752;2023-02-02T09:13:59;7.05;;;3.05;;
65174;SDS011;51761;42.126;24.752;2023-02-02T09:16:28;10.40;;;2.50;;
65174;SDS011;51761;42.126;24.752;2023-02-02T09:18:54;6.80;;;2.90;;
65174;SDS011;51761;42.126;24.752;2023-02-02T09:21:20;6.30;;;3.38;;
65174;SDS011;51761;42.126;24.752;2023-02-02T09:23:47;7.82;;;3.15;;
65174;SDS011;51761;42.126;24.752;2023-02-02T09:28:43;12.32;;;5.22;;
65174;SDS011;51761;42.126;24.752;2023-02-02T09:31:10;16.23;;;5.40;;
65174;SDS011;51761;42.126;24.752;2023-02-02T09:33:36;11.07;;;4.47;;
65174;SDS011;51761;42.126;24.752;2023-02-02T09:36:06;8.88;;;3.42;;
65174;SDS011;51761;42.126;24.752;2023-02-02T09:38:50;7.63;;;3.55;;
65174;SDS011;51761;42.126;24.752;2023-02-02T09:43:45;8.80;;;3.78;;
65174;SDS011;51761;42.126;24.752;2023-02-02T09:49:18;7.07;;;3.47;;
65174;SDS011;51761;42.126;24.752;2023-02-02T09:51:52;12.48;;;4.03;;
65174;SDS011;51761;42.126;24.752;2023-02-02T09:57:03;6.90;;;3.72;;
65174;SDS011;51761;42.126;24.752;2023-02-02T09:59:39;8.02;;;3.03;;
65174;SDS011;51761;42.126;24.752;2023-02-02T10:02:18;7.93;;;3.10;;
65174;SDS011;51761;42.126;24.752;2023-02-02T10:04:49;11.25;;;3.25;;
65174;SDS011;51761;42.126;24.752;2023-02-02T10:07:25;11.98;;;3.40;;
65174;SDS011;51761;42.126;24.752;2023-02-02T10:10:42;6.82;;;2.90;;
65174;SDS011;51761;42.126;24.752;2023-02-02T10:15:33;7.45;;;4.28;;
65174;SDS011;51761;42.126;24.752;2023-02-02T10:18:03;7.28;;;3.47;;
65174;SDS011;51761;42.126;24.752;2023-02-02T10:23:30;6.68;;;3.25;;
65174;SDS011;51761;42.126;24.752;2023-02-02T10:28:53;8.60;;;4.03;;
65174;SDS011;51761;42.126;24.752;2023-02-02T10:46:08;13.23;;;4.20;;
65174;SDS011;51761;42.126;24.752;2023-02-02T10:48:40;5.05;;;2.95;;
65174;SDS011;51761;42.126;24.752;2023-02-02T10:51:12;39.40;;;19.90;;
65174;SDS011;51761;42.126;24.752;2023-02-02T10:53:47;16.10;;;6.18;;
65174;SDS011;51761;42.126;24.752;2023-02-02T10:56:17;11.70;;;5.07;;
65174;SDS011;51761;42.126;24.752;2023-02-02T11:01:21;7.78;;;3.20;;
65174;SDS011;51761;42.126;24.752;2023-02-02T11:03:47;11.18;;;3.50;;
65174;SDS011;51761;42.126;24.752;2023-02-02T11:06:33;7.93;;;3.10;;
65174;SDS011;51761;42.126;24.752;2023-02-02T11:09:25;6.15;;;2.70;;
65174;SDS011;51761;42.126;24.752;2023-02-02T11:11:56;8.95;;;3.30;;
65174;SDS011;51761;42.126;24.752;2023-02-02T11:14:42;9.95;;;3.10;;
65174;SDS011;51761;42.126;24.752;2023-02-02T11:17:19;4.75;;;2.15;;
65174;SDS011;51761;42.126;24.752;2023-02-02T11:19:46;18.15;;;10.50;;
65174;SDS011;51761;42.126;24.752;2023-02-02T11:22:32;10.68;;;5.05;;
65174;SDS011;51761;42.126;24.752;2023-02-02T11:25:04;11.77;;;5.43;;
65174;SDS011;51761;42.126;24.752;2023-02-02T11:27:32;11.60;;;3.25;;
65174;SDS011;51761;42.126;24.752;2023-02-02T11:30:11;4.72;;;2.33;;
65174;SDS011;51761;42.126;24.752;2023-02-02T11:32:50;11.02;;;3.65;;
65174;SDS011;51761;42.126;24.752;2023-02-02T11:35:18;6.82;;;3.08;;
65174;SDS011;51761;42.126;24.752;2023-02-02T11:37:59;5.13;;;2.80;;
65174;SDS011;51761;42.126;24.752;2023-02-02T11:43:19;7.28;;;3.00;;
65174;SDS011;51761;42.126;24.752;2023-02-02T11:48:33;5.18;;;2.58;;
65174;SDS011;51761;42.126;24.752;2023-02-02T11:51:01;6.22;;;2.55;;
65174;SDS011;51761;42.126;24.752;2023-02-02T11:53:30;4.90;;;2.30;;
65174;SDS011;51761;42.126;24.752;2023-02-02T11:56:06;5.78;;;2.08;;
65174;SDS011;51761;42.126;24.752;2023-02-02T11:58:43;6.95;;;2.00;;
65174;SDS011;51761;42.126;24.752;2023-02-02T12:01:15;5.75;;;2.42;;
65174;SDS011;51761;42.126;24.752;2023-02-02T12:03:46;5.18;;;2.40;;
65174;SDS011;51761;42.126;24.752;2023-02-02T12:06:17;4.78;;;2.55;;
65174;SDS011;51761;42.126;24.752;2023-02-02T12:08:43;4.72;;;2.88;;
65174;SDS011;51761;42.126;24.752;2023-02-02T12:11:08;4.07;;;1.90;;
65174;SDS011;51761;42.126;24.752;2023-02-02T12:16:41;5.40;;;2.70;;
65174;SDS011;51761;42.126;24.752;2023-02-02T12:22:38;6.85;;;3.10;;
65174;SDS011;51761;42.126;24.752;2023-02-02T12:24:56;7.90;;;2.35;;
65174;SDS011;51761;42.126;24.752;2023-02-02T12:27:43;5.05;;;2.92;;
65174;SDS011;51761;42.126;24.752;2023-02-02T12:35:45;7.03;;;1.92;;
65174;SDS011;51761;42.126;24.752;2023-02-02T12:43:54;8.02;;;2.25;;
65174;SDS011;51761;42.126;24.752;2023-02-02T12:46:37;7.43;;;2.70;;
65174;SDS011;51761;42.126;24.752;2023-02-02T12:55:38;6.65;;;2.30;;
65174;SDS011;51761;42.126;24.752;2023-02-02T13:11:38;3.85;;;2.05;;
65174;SDS011;51761;42.126;24.752;2023-02-02T13:14:14;4.20;;;2.38;;
65174;SDS011;51761;42.126;24.752;2023-02-02T13:16:46;4.22;;;1.80;;
65174;SDS011;51761;42.126;24.752;2023-02-02T13:19:27;6.47;;;2.45;;
65174;SDS011;51761;42.126;24.752;2023-02-02T13:21:59;2.60;;;1.70;;
65174;SDS011;51761;42.126;24.752;2023-02-02T13:24:29;4.28;;;2.15;;
65174;SDS011;51761;42.126;24.752;2023-02-02T13:27:01;6.28;;;2.72;;
65174;SDS011;51761;42.126;24.752;2023-02-02T13:30:04;6.80;;;2.33;;
65174;SDS011;51761;42.126;24.752;2023-02-02T13:32:30;7.50;;;2.40;;
65174;SDS011;51761;42.126;24.752;2023-02-02T13:35:02;6.50;;;3.03;;
65174;SDS011;51761;42.126;24.752;2023-02-02T13:37:31;4.22;;;2.00;;
65174;SDS011;51761;42.126;24.752;2023-02-02T13:43:29;10.00;;;2.57;;
65174;SDS011;51761;42.126;24.752;2023-02-02T13:53:44;4.03;;;2.20;;
65174;SDS011;51761;42.126;24.752;2023-02-02T14:04:50;6.75;;;2.67;;
65174;SDS011;51761;42.126;24.752;2023-02-02T14:07:24;9.75;;;3.75;;
65174;SDS011;51761;42.126;24.752;2023-02-02T14:09:52;8.00;;;2.67;;
65174;SDS011;51761;42.126;24.752;2023-02-02T14:12:20;22.27;;;2.95;;
65174;SDS011;51761;42.126;24.752;2023-02-02T14:14:55;10.82;;;2.90;;
65174;SDS011;51761;42.126;24.752;2023-02-02T14:19:51;23.27;;;8.55;;
65174;SDS011;51761;42.126;24.752;2023-02-02T14:22:19;15.55;;;2.83;;
65174;SDS011;51761;42.126;24.752;2023-02-02T14:24:46;12.10;;;3.05;;
65174;SDS011;51761;42.126;24.752;2023-02-02T14:34:59;13.30;;;3.15;;
65174;SDS011;51761;42.126;24.752;2023-02-02T14:43:10;9.00;;;4.30;;
65174;SDS011;51761;42.126;24.752;2023-02-02T14:48:46;8.00;;;2.75;;
65174;SDS011;51761;42.126;24.752;2023-02-02T14:51:33;6.25;;;2.70;;
65174;SDS011;51761;42.126;24.752;2023-02-02T14:54:16;20.77;;;4.20;;
65174;SDS011;51761;42.126;24.752;2023-02-02T14:56:52;6.40;;;3.00;;
65174;SDS011;51761;42.126;24.752;2023-02-02T14:59:33;5.82;;;3.30;;
65174;SDS011;51761;42.126;24.752;2023-02-02T15:04:39;7.65;;;3.42;;
65174;SDS011;51761;42.126;24.752;2023-02-02T15:09:48;8.45;;;4.15;;
65174;SDS011;51761;42.126;24.752;2023-02-02T15:12:19;14.73;;;5.07;;
65174;SDS011;51761;42.126;24.752;2023-02-02T15:22:57;13.05;;;4.88;;
65174;SDS011;51761;42.126;24.752;2023-02-02T15:30:51;16.48;;;6.50;;
65174;SDS011;51761;42.126;24.752;2023-02-02T15:33:25;16.67;;;7.18;;
65174;SDS011;51761;42.126;24.752;2023-02-02T15:35:56;22.42;;;7.00;;
65174;SDS011;51761;42.126;24.752;2023-02-02T15:38:24;25.00;;;11.82;;
65174;SDS011;51761;42.126;24.752;2023-02-02T15:41:02;18.40;;;8.35;;
65174;SDS011;51761;42.126;24.752;2023-02-02T15:43:30;18.58;;;6.90;;
65174;SDS011;51761;42.126;24.752;2023-02-02T15:46:03;27.77;;;12.02;;
65174;SDS011;51761;42.126;24.752;2023-02-02T15:48:31;18.65;;;8.57;;
65174;SDS011;51761;42.126;24.752;2023-02-02T15:50:59;23.55;;;9.77;;
65174;SDS011;51761;42.126;24.752;2023-02-02T15:53:30;20.08;;;9.32;;
65174;SDS011;51761;42.126;24.752;2023-02-02T15:56:16;32.03;;;11.90;;
65174;SDS011;51761;42.126;24.752;2023-02-02T15:58:46;26.13;;;11.50;;
65174;SDS011;51761;42.126;24.752;2023-02-02T16:01:14;55.50;;;17.08;;
65174;SDS011;51761;42.126;24.752;2023-02-02T16:06:29;22.13;;;10.80;;
65174;SDS011;51761;42.126;24.752;2023-02-02T16:09:03;25.92;;;9.52;;
65174;SDS011;51761;42.126;24.752;2023-02-02T16:11:29;19.63;;;8.35;;
65174;SDS011;51761;42.126;24.752;2023-02-02T16:13:59;21.10;;;7.40;;
65174;SDS011;51761;42.126;24.752;2023-02-02T16:21:30;21.33;;;4.85;;
65174;SDS011;51761;42.126;24.752;2023-02-02T16:23:58;11.20;;;3.10;;
65174;SDS011;51761;42.126;24.752;2023-02-02T16:26:26;13.48;;;3.55;;
65174;SDS011;51761;42.126;24.752;2023-02-02T16:28:55;23.83;;;3.42;;
65174;SDS011;51761;42.126;24.752;2023-02-02T16:31:21;22.77;;;3.17;;
65174;SDS011;51761;42.126;24.752;2023-02-02T16:33:46;6.18;;;2.05;;
65174;SDS011;51761;42.126;24.752;2023-02-02T16:38:40;5.72;;;1.52;;
65174;SDS011;51761;42.126;24.752;2023-02-02T16:41:07;2.92;;;1.70;;
65174;SDS011;51761;42.126;24.752;2023-02-02T16:43:35;5.90;;;1.77;;
65174;SDS011;51761;42.126;24.752;2023-02-02T16:46:07;2.67;;;1.60;;
65174;SDS011;51761;42.126;24.752;2023-02-02T16:48:59;4.68;;;2.33;;
65174;SDS011;51761;42.126;24.752;2023-02-02T16:51:28;5.53;;;2.40;;
65174;SDS011;51761;42.126;24.752;2023-02-02T17:01:45;5.22;;;1.42;;
65174;SDS011;51761;42.126;24.752;2023-02-02T17:04:17;6.80;;;2.72;;
65174;SDS011;51761;42.126;24.752;2023-02-02T17:06:54;7.72;;;3.22;;
65174;SDS011;51761;42.126;24.752;2023-02-02T17:09:26;5.30;;;2.47;;
65174;SDS011;51761;42.126;24.752;2023-02-02T17:11:58;6.40;;;2.42;;
65174;SDS011;51761;42.126;24.752;2023-02-02T17:14:30;5.07;;;2.78;;
65174;SDS011;51761;42.126;24.752;2023-02-02T17:16:58;6.25;;;2.88;;
65174;SDS011;51761;42.126;24.752;2023-02-02T17:19:29;5.55;;;2.78;;
65174;SDS011;51761;42.126;24.752;2023-02-02T17:21:56;13.40;;;4.13;;
65174;SDS011;51761;42.126;24.752;2023-02-02T17:24:25;8.00;;;3.78;;
65174;SDS011;51761;42.126;24.752;2023-02-02T17:26:52;8.18;;;3.40;;
65174;SDS011;51761;42.126;24.752;2023-02-02T17:29:18;5.28;;;2.90;;
65174;SDS011;51761;42.126;24.752;2023-02-02T17:31:45;7.18;;;3.95;;
65174;SDS011;51761;42.126;24.752;2023-02-02T17:34:11;10.77;;;4.35;;
65174;SDS011;51761;42.126;24.752;2023-02-02T17:36:38;10.55;;;4.45;;
65174;SDS011;51761;42.126;24.752;2023-02-02T17:39:04;7.95;;;3.67;;